Погода Хавранна 2 недели

Мармара, Турция

25 июня-08 июля
  • 25июня
    Сегодня
    +22°
    +34°
    Ясно и безоблачно
    ВремяПогодаТемператураВлажностьДавлениеВетер, м/сВероятность осадков
    00:00Ясно и безоблачно+25°C77 %755 мм6.8 м/с2 %
    03:00Ясно и безоблачно+23°C82 %755 мм6.4 м/с2 %
    06:00Ясно и безоблачно+21°C86 %755 мм6.8 м/с2 %
    09:00Ясно и безоблачно+26°C64 %755 мм8.1 м/с3 %
    12:00Ясно и безоблачно+31°C41 %755 мм9.5 м/с2 %
    15:00Ясно и безоблачно+33°C38 %755 мм10.1 м/с2 %
    18:00Ясно и безоблачно+32°C42 %755 мм9.9 м/с2 %
    21:00Ясно и безоблачно+28°C57 %756 мм9.0 м/с2 %
  • 26июня
    Среда
    +20°
    +33°
    Ясно и безоблачно
    ВремяПогодаТемператураВлажностьДавлениеВетер, м/сВероятность осадков
    00:00Ясно и безоблачно+25°C64 %756 мм8.4 м/с2 %
    03:00Ясно и безоблачно+23°C61 %756 мм7.4 м/с2 %
    06:00Ясно и безоблачно+22°C57 %756 мм7.7 м/с2 %
    09:00Ясно и безоблачно+26°C44 %756 мм9.0 м/с2 %
    12:00Ясно и безоблачно+30°C33 %756 мм10.4 м/с2 %
    15:00Ясно и безоблачно+32°C29 %756 мм10.8 м/с2 %
    18:00Ясно и безоблачно+32°C38 %755 мм9.8 м/с2 %
    21:00Ясно и безоблачно+27°C55 %756 мм8.7 м/с2 %
  • 27июня
    Четверг
    +19°
    +34°
    Ясно и безоблачно
    ВремяПогодаТемператураВлажностьДавлениеВетер, м/сВероятность осадков
    00:00Ясно и безоблачно+24°C63 %756 мм7.9 м/с2 %
    03:00Ясно и безоблачно+21°C66 %755 мм7.3 м/с2 %
    06:00Ясно и безоблачно+20°C68 %755 мм6.8 м/с2 %
    09:00Ясно и безоблачно+25°C47 %754 мм7.4 м/с2 %
    12:00Ясно и безоблачно+30°C29 %754 мм8.2 м/с2 %
    15:00Ясно и безоблачно+33°C25 %753 мм8.1 м/с2 %
    18:00Ясно и безоблачно+33°C33 %753 мм7.8 м/с2 %
    21:00Ясно и безоблачно+27°C48 %754 мм7.8 м/с2 %
  • 28июня
    Пятница
    +22°
    +32°
    Ясно и безоблачно
    ВремяПогодаТемператураВлажностьДавлениеВетер, м/сВероятность осадков
    00:00Ясно и безоблачно+24°C61 %754 мм7.3 м/с2 %
    03:00Ясно и безоблачно+20°C71 %753 мм6.5 м/с2 %
    06:00Ясно и безоблачно+19°C82 %753 мм6.7 м/с2 %
    09:00Ясно и безоблачно+24°C60 %754 мм8.0 м/с2 %
    12:00Ясно и безоблачно+29°C41 %753 мм8.9 м/с2 %
    15:00Ясно и безоблачно+32°C38 %753 мм9.7 м/с2 %
    18:00Ясно и безоблачно+31°C40 %752 мм9.9 м/с2 %
    21:00Ясно и безоблачно+27°C56 %753 мм9.8 м/с2 %
  • 29июня
    Суббота
    +21°
    +32°
    Ясно и безоблачно
    ВремяПогодаТемператураВлажностьДавлениеВетер, м/сВероятность осадков
    00:00Ясно и безоблачно+25°C64 %754 мм10.3 м/с2 %
    03:00Ясно и безоблачно+22°C67 %753 мм9.8 м/с4 %
    06:00Ясно и безоблачно+22°C71 %754 мм9.0 м/с6 %
    09:00Ясно и безоблачно+25°C56 %754 мм12.7 м/с7 %
    12:00Ясно и безоблачно+29°C39 %755 мм13.7 м/с2 %
    15:00Ясно и безоблачно+31°C33 %754 мм14.6 м/с2 %
    18:00Ясно и безоблачно+31°C36 %755 мм13.1 м/с2 %
    21:00Ясно и безоблачно+27°C47 %756 мм11.4 м/с2 %
Мы используем cookies
Соглашаюсь